Time;durP1;ratioP1;P1;durP2;ratioP2;P2;SDS_P1;SDS_P2;PMS_P1;PMS_P2;Temp;Humidity;BMP_temperature;BMP_pressure;BME280_temperature;BME280_humidity;BME280_pressure;Samples;Min_cycle;Max_cycle;Signal;HPM_P1;HPM_P2
2022/03/24 00:01:25;;;;;;;35.75;20.10;;;;;;;;;;4979919;28;103259;-72
2022/03/24 00:03:53;;;;;;;36.40;20.80;;;;;;;;;;5032543;28;100715;-72
2022/03/24 00:06:19;;;;;;;42.05;21.45;;;;;;;;;;5033122;28;99945;-72
2022/03/24 00:08:46;;;;;;;35.90;19.25;;;;;;;;;;5032394;28;101599;-72
2022/03/24 00:11:13;;;;;;;37.20;19.05;;;;;;;;;;5005990;28;100239;-72
2022/03/24 00:13:40;;;;;;;49.50;23.83;;;;;;;;;;5002687;28;100934;-73
2022/03/24 00:16:07;;;;;;;46.25;22.15;;;;;;;;;;5015410;28;100062;-71
2022/03/24 00:18:34;;;;;;;53.70;23.92;;;;;;;;;;5033035;28;99843;-73
2022/03/24 00:21:02;;;;;;;46.65;24.15;;;;;;;;;;5014751;28;103569;-73
2022/03/24 00:23:29;;;;;;;50.88;24.83;;;;;;;;;;5013301;28;100588;-73
2022/03/24 00:25:55;;;;;;;51.50;24.67;;;;;;;;;;5008429;28;100272;-73
2022/03/24 00:28:22;;;;;;;45.05;20.88;;;;;;;;;;4978748;28;100087;-73
2022/03/24 00:30:49;;;;;;;47.88;24.00;;;;;;;;;;4998630;28;100451;-73
2022/03/24 00:33:16;;;;;;;48.90;24.20;;;;;;;;;;4978092;28;101327;-74
2022/03/24 00:35:45;;;;;;;48.97;23.05;;;;;;;;;;5012467;28;100316;-72
2022/03/24 00:38:12;;;;;;;42.97;21.70;;;;;;;;;;4994981;28;100068;-73
2022/03/24 00:40:39;;;;;;;37.72;21.23;;;;;;;;;;5012401;28;100111;-72
2022/03/24 00:43:07;;;;;;;39.42;20.90;;;;;;;;;;5008416;28;100613;-72
2022/03/24 00:45:33;;;;;;;39.75;20.73;;;;;;;;;;5013879;28;100302;-72
2022/03/24 00:48:01;;;;;;;43.72;20.83;;;;;;;;;;5015249;28;100071;-72
2022/03/24 00:50:28;;;;;;;37.53;19.83;;;;;;;;;;5008841;28;101415;-73
2022/03/24 00:52:55;;;;;;;32.10;17.50;;;;;;;;;;4994302;28;100566;-72
2022/03/24 00:55:24;;;;;;;34.67;18.27;;;;;;;;;;4994010;28;100189;-73
2022/03/24 00:57:52;;;;;;;30.55;17.73;;;;;;;;;;4994944;28;100098;-73
2022/03/24 01:00:20;;;;;;;34.30;17.85;;;;;;;;;;4975185;28;100142;-72
2022/03/24 01:02:50;;;;;;;35.42;17.83;;;;;;;;;;4997337;28;100588;-73
2022/03/24 01:05:17;;;;;;;31.20;17.05;;;;;;;;;;4987395;28;101623;-73
2022/03/24 01:07:44;;;;;;;34.00;16.92;;;;;;;;;;4997809;28;100036;-73
2022/03/24 01:10:12;;;;;;;33.40;17.65;;;;;;;;;;5014371;28;100231;-72
2022/03/24 01:12:39;;;;;;;32.95;18.55;;;;;;;;;;5014106;28;101215;-72
2022/03/24 01:15:11;;;;;;;36.28;17.35;;;;;;;;;;4998043;28;99986;-73
2022/03/24 01:17:38;;;;;;;37.85;17.67;;;;;;;;;;4998524;28;100048;-73
2022/03/24 01:20:05;;;;;;;30.85;17.27;;;;;;;;;;5031601;28;100138;-72
2022/03/24 01:22:32;;;;;;;30.55;16.42;;;;;;;;;;5031631;28;100900;-72
2022/03/24 01:24:59;;;;;;;30.58;16.75;;;;;;;;;;4980517;28;100161;-72
2022/03/24 01:27:28;;;;;;;27.65;17.73;;;;;;;;;;4978139;28;99965;-73
2022/03/24 01:29:55;;;;;;;35.70;18.02;;;;;;;;;;5011232;28;100255;-72
2022/03/24 01:32:22;;;;;;;30.83;16.88;;;;;;;;;;5011387;28;100570;-72
2022/03/24 01:34:50;;;;;;;32.50;15.68;;;;;;;;;;4961530;28;100146;-72
2022/03/24 01:37:19;;;;;;;28.83;15.35;;;;;;;;;;4978612;28;100050;-72
2022/03/24 01:39:46;;;;;;;31.85;16.65;;;;;;;;;;4977296;28;102976;-72
2022/03/24 01:42:13;;;;;;;29.05;15.15;;;;;;;;;;5011097;28;100511;-72
2022/03/24 01:44:40;;;;;;;27.50;16.13;;;;;;;;;;4976999;28;100140;-72
2022/03/24 01:47:07;;;;;;;30.13;17.02;;;;;;;;;;4975485;28;100107;-72
2022/03/24 01:49:36;;;;;;;28.63;16.30;;;;;;;;;;5013683;28;103733;-72
2022/03/24 01:52:07;;;;;;;26.80;15.27;;;;;;;;;;4997015;28;100619;-72
2022/03/24 01:54:35;;;;;;;27.42;15.57;;;;;;;;;;4981590;28;100267;-73
2022/03/24 01:57:02;;;;;;;29.33;17.25;;;;;;;;;;5017574;28;100188;-71
2022/03/24 01:59:29;;;;;;;31.83;16.45;;;;;;;;;;5000665;28;100469;-71
2022/03/24 02:01:57;;;;;;;32.20;16.17;;;;;;;;;;5035054;28;100631;-71
2022/03/24 02:04:24;;;;;;;30.17;16.75;;;;;;;;;;5017454;28;100064;-71
2022/03/24 02:06:51;;;;;;;39.88;19.77;;;;;;;;;;5000476;28;100031;-72
2022/03/24 02:09:18;;;;;;;32.92;18.33;;;;;;;;;;4983616;28;100851;-72
2022/03/24 02:11:47;;;;;;;35.85;19.10;;;;;;;;;;5016270;28;100640;-72
2022/03/24 02:14:16;;;;;;;27.08;16.35;;;;;;;;;;4985039;28;100053;-72
2022/03/24 02:16:47;;;;;;;34.60;18.25;;;;;;;;;;5000266;28;100149;-73
2022/03/24 02:19:22;;;;;;;41.97;19.77;;;;;;;;;;4983907;28;100363;-72
2022/03/24 02:22:09;;;;;;;40.00;20.92;;;;;;;;;;4983564;28;100733;-72
2022/03/24 02:24:37;;;;;;;40.65;23.23;;;;;;;;;;5024601;28;100216;-72
2022/03/24 02:27:04;;;;;;;40.60;21.27;;;;;;;;;;5001188;28;100091;-72
2022/03/24 02:29:31;;;;;;;39.30;20.58;;;;;;;;;;5016479;28;100228;-72
2022/03/24 02:31:58;;;;;;;38.10;19.65;;;;;;;;;;4999165;28;102649;-73
2022/03/24 02:34:37;;;;;;;36.50;19.42;;;;;;;;;;5015585;28;100144;-72
2022/03/24 02:37:07;;;;;;;29.65;17.40;;;;;;;;;;5014594;28;100044;-72
2022/03/24 02:39:38;;;;;;;34.78;18.10;;;;;;;;;;5033184;28;100836;-72
2022/03/24 02:42:06;;;;;;;40.85;19.73;;;;;;;;;;5033156;28;100619;-72
2022/03/24 02:44:33;;;;;;;37.55;19.35;;;;;;;;;;4982251;28;100211;-73
2022/03/24 02:47:01;;;;;;;34.50;19.75;;;;;;;;;;4978011;28;100149;-74
2022/03/24 02:49:33;;;;;;;33.72;18.95;;;;;;;;;;4979265;28;100199;-72
2022/03/24 02:52:00;;;;;;;34.60;18.73;;;;;;;;;;5013635;28;100698;-72
2022/03/24 02:54:28;;;;;;;34.38;18.42;;;;;;;;;;4989977;28;101208;-72
2022/03/24 02:56:55;;;;;;;33.22;17.70;;;;;;;;;;5013247;28;100072;-72
2022/03/24 02:59:22;;;;;;;33.70;16.88;;;;;;;;;;4962138;28;100262;-72
2022/03/24 03:01:54;;;;;;;27.25;15.52;;;;;;;;;;4989346;28;100758;-72
2022/03/24 03:04:21;;;;;;;30.70;15.45;;;;;;;;;;5032977;28;100274;-72
2022/03/24 03:06:48;;;;;;;29.77;14.63;;;;;;;;;;4999203;28;100105;-72
2022/03/24 03:09:16;;;;;;;27.35;14.77;;;;;;;;;;4993902;28;100314;-72
2022/03/24 03:11:46;;;;;;;22.60;13.32;;;;;;;;;;4978776;28;100694;-72
2022/03/24 03:14:15;;;;;;;25.70;14.63;;;;;;;;;;4991992;28;100218;-72
2022/03/24 03:16:42;;;;;;;26.33;13.98;;;;;;;;;;4998952;28;100215;-72
2022/03/24 03:19:09;;;;;;;26.17;13.57;;;;;;;;;;5014880;28;100104;-72
2022/03/24 03:21:36;;;;;;;23.75;12.98;;;;;;;;;;5014532;28;100679;-72
2022/03/24 03:24:04;;;;;;;20.50;12.30;;;;;;;;;;5015625;28;100106;-73
2022/03/24 03:26:31;;;;;;;22.42;13.10;;;;;;;;;;5016169;28;100135;-72
2022/03/24 03:28:58;;;;;;;23.75;13.27;;;;;;;;;;5033519;28;100231;-72
2022/03/24 03:31:25;;;;;;;23.90;12.73;;;;;;;;;;4999403;28;100708;-72
2022/03/24 03:33:51;;;;;;;25.30;14.00;;;;;;;;;;4999342;28;100138;-72
2022/03/24 03:36:22;;;;;;;23.77;12.82;;;;;;;;;;5015820;28;100115;-73
2022/03/24 03:38:49;;;;;;;24.13;13.50;;;;;;;;;;5015447;28;100784;-73
2022/03/24 03:41:16;;;;;;;21.80;12.70;;;;;;;;;;4999109;28;100662;-73
2022/03/24 03:43:43;;;;;;;25.77;14.05;;;;;;;;;;4999359;28;100071;-73
2022/03/24 03:46:10;;;;;;;25.35;14.13;;;;;;;;;;5015994;28;100103;-73
2022/03/24 03:48:38;;;;;;;20.67;12.32;;;;;;;;;;5015035;28;100119;-75
2022/03/24 03:51:05;;;;;;;24.05;13.80;;;;;;;;;;5015532;28;100702;-73
2022/03/24 03:53:33;;;;;;;23.92;14.02;;;;;;;;;;5016038;28;99910;-73
2022/03/24 03:56:00;;;;;;;22.20;13.50;;;;;;;;;;4999550;28;100196;-72
2022/03/24 03:58:27;;;;;;;21.10;13.65;;;;;;;;;;4982211;28;100378;-72
2022/03/24 04:00:57;;;;;;;22.20;12.80;;;;;;;;;;5015449;28;100783;-72
2022/03/24 04:03:29;;;;;;;27.45;13.45;;;;;;;;;;4996580;28;100066;-71
2022/03/24 04:05:57;;;;;;;24.80;14.25;;;;;;;;;;5004883;28;100013;-72
2022/03/24 04:08:24;;;;;;;27.20;14.13;;;;;;;;;;5015588;28;100333;-72
2022/03/24 04:10:52;;;;;;;23.80;11.73;;;;;;;;;;5012997;28;103518;-74
2022/03/24 04:13:19;;;;;;;22.10;13.70;;;;;;;;;;5012603;28;99828;-71
2022/03/24 04:15:46;;;;;;;26.70;13.43;;;;;;;;;;4979199;28;100048;-72
2022/03/24 04:18:13;;;;;;;25.40;12.68;;;;;;;;;;4993379;28;100460;-72
2022/03/24 04:20:40;;;;;;;23.75;12.10;;;;;;;;;;5012886;28;100552;-73
2022/03/24 04:23:07;;;;;;;21.30;12.57;;;;;;;;;;4995223;28;100287;-72
2022/03/24 04:25:34;;;;;;;27.83;12.77;;;;;;;;;;4995051;28;99901;-72
2022/03/24 04:28:06;;;;;;;24.30;13.85;;;;;;;;;;4993759;28;100310;-73
2022/03/24 04:30:33;;;;;;;27.75;12.25;;;;;;;;;;5012708;28;100613;-73
2022/03/24 04:33:00;;;;;;;26.67;13.77;;;;;;;;;;4978704;28;100141;-72
2022/03/24 04:35:27;;;;;;;25.25;13.07;;;;;;;;;;5008620;28;100043;-73
2022/03/24 04:37:54;;;;;;;23.27;14.00;;;;;;;;;;5013800;28;100787;-73
2022/03/24 04:40:21;;;;;;;25.77;13.75;;;;;;;;;;5014684;28;100526;-76
2022/03/24 04:42:49;;;;;;;26.60;13.98;;;;;;;;;;5015073;28;100020;-72
2022/03/24 04:45:17;;;;;;;24.98;13.73;;;;;;;;;;4996259;28;100113;-72
2022/03/24 04:47:44;;;;;;;25.63;14.63;;;;;;;;;;4992543;28;100719;-72
2022/03/24 04:50:11;;;;;;;24.15;14.75;;;;;;;;;;5013888;28;104335;-73
2022/03/24 04:52:38;;;;;;;22.60;13.68;;;;;;;;;;5032290;28;100175;-72
2022/03/24 04:55:07;;;;;;;31.25;14.73;;;;;;;;;;4997516;28;100025;-72
2022/03/24 04:57:34;;;;;;;23.30;13.80;;;;;;;;;;5012286;28;100838;-72
2022/03/24 05:00:01;;;;;;;23.05;12.85;;;;;;;;;;5007993;28;100838;-72
2022/03/24 05:02:29;;;;;;;26.05;13.90;;;;;;;;;;5009781;28;100492;-72
2022/03/24 05:04:55;;;;;;;26.50;13.90;;;;;;;;;;4992404;28;100156;-72
2022/03/24 05:07:22;;;;;;;23.25;13.02;;;;;;;;;;5001233;28;100478;-72
2022/03/24 05:09:53;;;;;;;25.48;13.15;;;;;;;;;;5012599;28;101875;-72
2022/03/24 05:12:19;;;;;;;24.13;13.95;;;;;;;;;;5032517;28;99829;-72
2022/03/24 05:14:46;;;;;;;24.60;13.63;;;;;;;;;;5031922;28;100007;-75
2022/03/24 05:17:13;;;;;;;24.00;14.52;;;;;;;;;;5031945;28;100697;-71
2022/03/24 05:19:40;;;;;;;28.17;15.00;;;;;;;;;;4997833;28;102680;-72
2022/03/24 05:22:07;;;;;;;28.40;13.93;;;;;;;;;;5021471;28;100046;-72
2022/03/24 05:24:34;;;;;;;26.45;13.73;;;;;;;;;;5012395;28;100079;-72
2022/03/24 05:27:01;;;;;;;29.02;14.77;;;;;;;;;;4994006;28;100109;-72
2022/03/24 05:29:28;;;;;;;24.13;14.52;;;;;;;;;;4992873;28;100587;-72
2022/03/24 05:31:55;;;;;;;24.75;16.27;;;;;;;;;;4994369;28;100155;-72
2022/03/24 05:34:21;;;;;;;27.25;15.10;;;;;;;;;;4994528;28;99963;-72
2022/03/24 05:36:48;;;;;;;24.70;14.52;;;;;;;;;;5011726;28;100167;-72
2022/03/24 05:39:17;;;;;;;34.63;13.85;;;;;;;;;;4994228;28;100583;-71
2022/03/24 05:41:43;;;;;;;30.88;15.90;;;;;;;;;;5012208;28;100022;-71
2022/03/24 05:44:10;;;;;;;24.67;14.70;;;;;;;;;;4994709;28;100067;-72
2022/03/24 05:46:45;;;;;;;29.65;14.95;;;;;;;;;;4994754;28;100277;-71
2022/03/24 05:49:15;;;;;;;26.35;16.25;;;;;;;;;;5007896;28;100576;-71
2022/03/24 05:52:01;;;;;;;26.48;14.98;;;;;;;;;;5016548;28;100274;-72
2022/03/24 05:54:28;;;;;;;30.52;16.20;;;;;;;;;;4997669;28;100049;-73
2022/03/24 05:56:56;;;;;;;28.23;16.00;;;;;;;;;;5013601;28;100178;-72
2022/03/24 05:59:22;;;;;;;29.90;17.23;;;;;;;;;;5012957;28;101718;-72
2022/03/24 06:01:49;;;;;;;32.83;17.90;;;;;;;;;;5013501;28;100330;-72
2022/03/24 06:04:18;;;;;;;33.85;18.92;;;;;;;;;;5031701;28;99969;-73
2022/03/24 06:06:45;;;;;;;34.60;18.60;;;;;;;;;;5013558;28;100315;-73
2022/03/24 06:09:13;;;;;;;34.78;19.38;;;;;;;;;;4997172;28;100535;-73
2022/03/24 06:11:40;;;;;;;53.45;32.13;;;;;;;;;;4993616;28;102661;-73
2022/03/24 06:14:10;;;;;;;37.47;20.08;;;;;;;;;;5011647;28;100030;-73
2022/03/24 06:16:37;;;;;;;35.35;20.25;;;;;;;;;;5009529;28;100414;-71
2022/03/24 06:19:04;;;;;;;35.72;20.65;;;;;;;;;;5031068;28;100766;-73
2022/03/24 06:21:31;;;;;;;38.80;22.25;;;;;;;;;;5031746;28;100037;-72
2022/03/24 06:23:58;;;;;;;36.25;23.15;;;;;;;;;;5012829;28;99991;-72
2022/03/24 06:26:25;;;;;;;37.67;22.50;;;;;;;;;;5030589;28;102583;-72
2022/03/24 06:28:54;;;;;;;40.72;24.73;;;;;;;;;;5030920;28;100627;-72
2022/03/24 06:31:23;;;;;;;43.60;25.58;;;;;;;;;;5013817;28;100060;-72
2022/03/24 06:33:50;;;;;;;46.10;24.77;;;;;;;;;;5031530;28;100143;-72
2022/03/24 06:36:17;;;;;;;41.53;23.55;;;;;;;;;;4994258;28;100248;-72
2022/03/24 06:38:44;;;;;;;43.30;22.40;;;;;;;;;;4993033;28;100711;-72
2022/03/24 06:41:14;;;;;;;39.70;21.58;;;;;;;;;;5018007;28;100113;-74
2022/03/24 06:43:42;;;;;;;31.33;20.15;;;;;;;;;;5034392;28;100002;-74
2022/03/24 06:46:09;;;;;;;40.53;22.30;;;;;;;;;;5000016;28;100238;-73
2022/03/24 06:48:37;;;;;;;40.03;20.25;;;;;;;;;;5034236;28;100601;-72
2022/03/24 06:51:04;;;;;;;38.65;20.92;;;;;;;;;;5034362;28;100067;-72
2022/03/24 06:53:32;;;;;;;37.40;20.13;;;;;;;;;;5034443;28;100160;-72
2022/03/24 06:55:59;;;;;;;34.00;19.10;;;;;;;;;;4983196;28;100169;-72
2022/03/24 06:58:26;;;;;;;39.53;19.75;;;;;;;;;;5033568;28;101785;-73
2022/03/24 07:00:53;;;;;;;36.40;18.58;;;;;;;;;;5034135;28;100130;-73
2022/03/24 07:03:20;;;;;;;38.10;19.48;;;;;;;;;;5012349;28;100848;-72
2022/03/24 07:05:47;;;;;;;32.50;20.40;;;;;;;;;;5011880;28;104034;-72
2022/03/24 07:08:14;;;;;;;37.17;21.73;;;;;;;;;;4992487;28;100542;-72
2022/03/24 07:10:46;;;;;;;34.58;21.08;;;;;;;;;;4983334;28;100317;-72
2022/03/24 07:13:13;;;;;;;35.40;20.52;;;;;;;;;;5000002;28;103981;-73
2022/03/24 07:15:40;;;;;;;33.63;21.38;;;;;;;;;;4975807;28;100205;-73
2022/03/24 07:18:06;;;;;;;37.47;21.33;;;;;;;;;;4993217;28;100559;-73
2022/03/24 07:20:34;;;;;;;38.47;20.55;;;;;;;;;;4994052;28;105137;-72
2022/03/24 07:23:03;;;;;;;35.53;19.92;;;;;;;;;;4993752;28;100130;-72
2022/03/24 07:25:31;;;;;;;37.35;21.02;;;;;;;;;;5008430;28;100524;-72
2022/03/24 07:27:58;;;;;;;39.45;21.77;;;;;;;;;;4975841;28;100640;-72
2022/03/24 07:30:25;;;;;;;40.13;23.90;;;;;;;;;;5002436;28;100059;-71
2022/03/24 07:32:54;;;;;;;40.47;23.35;;;;;;;;;;5012072;28;100140;-72
2022/03/24 07:35:21;;;;;;;38.08;22.00;;;;;;;;;;4975407;28;100256;-72
2022/03/24 07:37:48;;;;;;;41.72;23.77;;;;;;;;;;4976965;28;100688;-71
2022/03/24 07:40:18;;;;;;;42.83;22.75;;;;;;;;;;5010827;28;100110;-73
2022/03/24 07:42:45;;;;;;;39.75;23.70;;;;;;;;;;5013577;28;100096;-72
2022/03/24 07:45:12;;;;;;;44.67;24.77;;;;;;;;;;4995600;28;100145;-72
2022/03/24 07:48:06;;;;;;;45.15;25.13;;;;;;;;;;5011133;28;100985;-72
2022/03/24 07:50:33;;;;;;;44.20;25.02;;;;;;;;;;5013435;28;99975;-71
2022/03/24 07:53:24;;;;;;;44.78;25.90;;;;;;;;;;5012771;28;100223;-72
2022/03/24 07:55:51;;;;;;;46.72;25.77;;;;;;;;;;5002394;28;100235;-72
2022/03/24 07:58:18;;;;;;;47.83;26.17;;;;;;;;;;5012916;28;100483;-72
2022/03/24 08:00:45;;;;;;;47.10;26.95;;;;;;;;;;4995813;28;100149;-72
2022/03/24 08:03:14;;;;;;;53.03;29.50;;;;;;;;;;4969002;28;100434;-72
2022/03/24 08:05:41;;;;;;;53.88;28.77;;;;;;;;;;4978474;28;100499;-72
2022/03/24 08:08:11;;;;;;;50.55;29.08;;;;;;;;;;5013528;28;100542;-72
2022/03/24 08:10:39;;;;;;;49.90;28.90;;;;;;;;;;4996428;28;100204;-73
2022/03/24 08:13:07;;;;;;;55.85;29.63;;;;;;;;;;4979995;28;99990;-72
2022/03/24 08:15:35;;;;;;;59.13;31.75;;;;;;;;;;5013190;28;100155;-72
2022/03/24 08:18:05;;;;;;;55.92;29.83;;;;;;;;;;5013019;28;100537;-74
2022/03/24 08:20:33;;;;;;;52.00;29.15;;;;;;;;;;4995560;28;100140;-72
2022/03/24 08:23:00;;;;;;;46.85;29.90;;;;;;;;;;4995987;28;100182;-71
2022/03/24 08:25:27;;;;;;;58.80;31.48;;;;;;;;;;4978855;28;100523;-71
2022/03/24 08:27:54;;;;;;;52.97;31.23;;;;;;;;;;4976864;28;100635;-72
2022/03/24 08:30:21;;;;;;;51.42;30.50;;;;;;;;;;5013459;28;99994;-72
2022/03/24 08:32:47;;;;;;;50.72;30.48;;;;;;;;;;5013383;28;100022;-72
2022/03/24 08:35:14;;;;;;;57.15;31.77;;;;;;;;;;5012862;28;100326;-72
2022/03/24 08:37:41;;;;;;;54.45;30.85;;;;;;;;;;5013146;28;100585;-72
2022/03/24 08:40:10;;;;;;;55.88;31.58;;;;;;;;;;4988685;28;101389;-73
2022/03/24 08:42:37;;;;;;;52.88;30.60;;;;;;;;;;4982602;28;100032;-73
2022/03/24 08:45:09;;;;;;;57.35;31.92;;;;;;;;;;4997796;28;100200;-73
2022/03/24 08:47:36;;;;;;;55.00;31.63;;;;;;;;;;5015134;28;100643;-73
2022/03/24 08:50:06;;;;;;;52.78;32.55;;;;;;;;;;4998865;28;100106;-72
2022/03/24 08:52:35;;;;;;;53.03;32.53;;;;;;;;;;5015260;28;100146;-72
2022/03/24 08:55:05;;;;;;;57.53;33.38;;;;;;;;;;5011663;28;100804;-73
2022/03/24 08:57:33;;;;;;;57.05;33.95;;;;;;;;;;5012438;28;100644;-73
2022/03/24 09:00:01;;;;;;;65.68;33.08;;;;;;;;;;5012439;28;100250;-73
2022/03/24 09:02:28;;;;;;;57.42;31.83;;;;;;;;;;5012795;28;100035;-72
2022/03/24 09:04:56;;;;;;;56.45;32.05;;;;;;;;;;4994525;28;100511;-71
2022/03/24 09:07:35;;;;;;;63.47;34.60;;;;;;;;;;4995886;28;100552;-72
2022/03/24 09:10:06;;;;;;;62.72;35.42;;;;;;;;;;4978318;28;100529;-72
2022/03/24 09:12:40;;;;;;;59.63;33.90;;;;;;;;;;4994489;28;100169;-72
2022/03/24 09:15:08;;;;;;;62.97;36.08;;;;;;;;;;4994726;28;102194;-72
2022/03/24 09:17:35;;;;;;;67.72;35.28;;;;;;;;;;4977476;28;101983;-71
2022/03/24 09:20:03;;;;;;;64.53;35.92;;;;;;;;;;4960414;28;100377;-72
2022/03/24 09:22:30;;;;;;;57.65;34.65;;;;;;;;;;5011320;28;100521;-71
2022/03/24 09:24:57;;;;;;;67.10;36.83;;;;;;;;;;4989544;28;100821;-72
2022/03/24 09:27:24;;;;;;;59.80;34.47;;;;;;;;;;5011721;28;100704;-72
2022/03/24 09:29:52;;;;;;;58.30;33.30;;;;;;;;;;5014492;28;100084;-72
2022/03/24 09:32:19;;;;;;;63.10;35.53;;;;;;;;;;5006765;28;100118;-72
2022/03/24 09:34:46;;;;;;;60.00;35.47;;;;;;;;;;4993179;28;100276;-72
2022/03/24 09:37:17;;;;;;;65.00;38.22;;;;;;;;;;5011600;28;100630;-72
2022/03/24 09:39:46;;;;;;;64.65;38.60;;;;;;;;;;5011200;28;101386;-72
2022/03/24 09:42:13;;;;;;;63.00;35.38;;;;;;;;;;5011320;28;100085;-71
2022/03/24 09:44:41;;;;;;;75.38;38.17;;;;;;;;;;4998756;28;100575;-73
2022/03/24 09:47:12;;;;;;;63.75;38.80;;;;;;;;;;4989762;28;100659;-72
2022/03/24 09:49:40;;;;;;;67.40;39.20;;;;;;;;;;5009662;28;100175;-72
2022/03/24 09:52:11;;;;;;;66.47;37.92;;;;;;;;;;5011066;28;100503;-72
2022/03/24 09:54:38;;;;;;;65.07;37.97;;;;;;;;;;4995307;28;102096;-72
2022/03/24 09:57:06;;;;;;;66.75;38.67;;;;;;;;;;5010365;28;101089;-72
2022/03/24 09:59:33;;;;;;;63.88;38.13;;;;;;;;;;4960274;28;100176;-71
2022/03/24 10:02:03;;;;;;;66.75;37.15;;;;;;;;;;4993853;28;100168;-72
2022/03/24 10:04:44;;;;;;;65.53;38.58;;;;;;;;;;4974703;28;100282;-72
2022/03/24 10:07:16;;;;;;;62.45;36.08;;;;;;;;;;4978258;28;100598;-72
2022/03/24 10:09:46;;;;;;;66.15;36.38;;;;;;;;;;4976671;28;100035;-73
2022/03/24 10:12:28;;;;;;;63.15;35.33;;;;;;;;;;5010616;28;100199;-72
2022/03/24 10:15:00;;;;;;;54.40;32.85;;;;;;;;;;4977899;28;100268;-72
2022/03/24 10:17:27;;;;;;;57.72;33.03;;;;;;;;;;4979588;28;100788;-72
2022/03/24 10:19:59;;;;;;;67.32;35.38;;;;;;;;;;4999252;28;100117;-72
2022/03/24 10:22:26;;;;;;;44.30;24.80;;;;;;;;;;5020347;28;100089;-72
2022/03/24 10:24:53;;;;;;;48.33;28.65;;;;;;;;;;4976218;28;100325;-73
2022/03/24 10:27:25;;;;;;;58.15;32.63;;;;;;;;;;4995823;28;102356;-72
2022/03/24 10:29:59;;;;;;;60.55;32.15;;;;;;;;;;4982234;28;100166;-72
2022/03/24 10:32:28;;;;;;;45.50;26.52;;;;;;;;;;4997248;28;100147;-72
2022/03/24 10:34:56;;;;;;;50.30;30.08;;;;;;;;;;5005407;28;100758;-73
2022/03/24 10:37:25;;;;;;;57.03;26.92;;;;;;;;;;4980072;28;100544;-72
2022/03/24 10:40:08;;;;;;;51.58;26.38;;;;;;;;;;4980008;28;100102;-72
2022/03/24 10:42:37;;;;;;;51.13;28.35;;;;;;;;;;4997465;28;100161;-72
2022/03/24 10:45:07;;;;;;;45.70;24.17;;;;;;;;;;5014390;28;100479;-72
2022/03/24 10:47:39;;;;;;;44.90;24.80;;;;;;;;;;5014097;28;100692;-73
2022/03/24 10:50:25;;;;;;;48.72;24.75;;;;;;;;;;4979948;28;100464;-72
2022/03/24 10:52:53;;;;;;;50.05;26.35;;;;;;;;;;5014175;28;99987;-72
2022/03/24 10:55:35;;;;;;;47.83;28.83;;;;;;;;;;4996252;28;101291;-72
2022/03/24 10:58:07;;;;;;;40.80;23.23;;;;;;;;;;5014314;28;101115;-74
2022/03/24 11:00:34;;;;;;;42.45;25.60;;;;;;;;;;5013031;28;100071;-73
2022/03/24 11:03:01;;;;;;;41.38;24.33;;;;;;;;;;5013722;28;99995;-73
2022/03/24 11:05:28;;;;;;;50.28;24.38;;;;;;;;;;5012740;28;101378;-73
2022/03/24 11:07:56;;;;;;;43.45;24.23;;;;;;;;;;5011290;28;100608;-73
2022/03/24 11:10:23;;;;;;;37.92;23.85;;;;;;;;;;4995345;28;100195;-73
2022/03/24 11:12:50;;;;;;;45.25;23.85;;;;;;;;;;5013148;28;99958;-73
2022/03/24 11:15:17;;;;;;;40.30;22.77;;;;;;;;;;4995064;28;100478;-73
2022/03/24 11:17:43;;;;;;;44.13;23.27;;;;;;;;;;5012984;28;101822;-73
2022/03/24 11:20:20;;;;;;;38.63;23.45;;;;;;;;;;4978749;28;100129;-72
2022/03/24 11:22:55;;;;;;;37.72;23.08;;;;;;;;;;4995307;28;101041;-72
2022/03/24 11:25:23;;;;;;;41.42;23.17;;;;;;;;;;4991827;28;100591;-72
2022/03/24 11:27:50;;;;;;;39.15;22.30;;;;;;;;;;5005984;28;100771;-73
2022/03/24 11:30:18;;;;;;;41.63;24.52;;;;;;;;;;4977770;28;99989;-73
2022/03/24 11:32:46;;;;;;;38.03;24.08;;;;;;;;;;4981603;28;100218;-73
2022/03/24 11:35:13;;;;;;;44.00;24.35;;;;;;;;;;4994610;28;100568;-71
2022/03/24 11:37:40;;;;;;;47.53;25.38;;;;;;;;;;4978539;28;101956;-73
2022/03/24 11:40:17;;;;;;;43.95;26.55;;;;;;;;;;4995375;28;100115;-74
2022/03/24 11:43:00;;;;;;;48.47;27.77;;;;;;;;;;4990501;28;100354;-73
2022/03/24 11:45:34;;;;;;;43.33;23.45;;;;;;;;;;5010361;28;100657;-71
2022/03/24 11:48:08;;;;;;;41.78;24.73;;;;;;;;;;5013117;28;100578;-71
2022/03/24 11:50:35;;;;;;;48.23;26.90;;;;;;;;;;4995017;28;100321;-72
2022/03/24 11:53:15;;;;;;;50.15;25.98;;;;;;;;;;5013664;28;100608;-72
2022/03/24 11:56:03;;;;;;;43.67;23.52;;;;;;;;;;4982725;28;100209;-71
2022/03/24 11:58:44;;;;;;;36.47;21.88;;;;;;;;;;5011635;28;100554;-72
2022/03/24 12:01:17;;;;;;;43.78;23.10;;;;;;;;;;4995443;28;100167;-73
2022/03/24 12:03:45;;;;;;;44.27;25.67;;;;;;;;;;4994592;28;100297;-73
2022/03/24 12:06:14;;;;;;;45.70;25.98;;;;;;;;;;4994634;28;100217;-72
2022/03/24 12:09:01;;;;;;;42.78;22.73;;;;;;;;;;4995081;28;101163;-72
2022/03/24 12:11:31;;;;;;;41.65;23.23;;;;;;;;;;5005383;28;99928;-72
2022/03/24 12:14:03;;;;;;;36.97;19.48;;;;;;;;;;5012130;28;100096;-72
2022/03/24 12:16:30;;;;;;;34.63;19.85;;;;;;;;;;4994985;28;100305;-72
2022/03/24 12:18:57;;;;;;;44.10;22.63;;;;;;;;;;4977528;28;100721;-72
2022/03/24 12:21:33;;;;;;;40.40;21.67;;;;;;;;;;5011110;28;100404;-72
2022/03/24 12:24:17;;;;;;;36.95;22.23;;;;;;;;;;4995780;28;100087;-73
2022/03/24 12:26:54;;;;;;;27.97;17.53;;;;;;;;;;4978316;28;100386;-73
2022/03/24 12:29:22;;;;;;;34.88;18.70;;;;;;;;;;4993110;28;100871;-72
2022/03/24 12:31:58;;;;;;;27.55;16.20;;;;;;;;;;4977383;28;100159;-72
2022/03/24 12:34:45;;;;;;;35.15;16.77;;;;;;;;;;4986786;28;100091;-72
2022/03/24 12:37:27;;;;;;;21.58;13.13;;;;;;;;;;5019315;27;100973;-73
2022/03/24 12:40:09;;;;;;;25.52;11.90;;;;;;;;;;4993957;28;100648;-72
2022/03/24 12:42:46;;;;;;;32.40;12.45;;;;;;;;;;5011521;28;100081;-73
2022/03/24 12:45:22;;;;;;;27.08;11.85;;;;;;;;;;4992428;28;99962;-71
2022/03/24 12:48:05;;;;;;;26.65;12.63;;;;;;;;;;4994347;28;103812;-71
2022/03/24 12:50:41;;;;;;;20.10;12.32;;;;;;;;;;4978761;28;100567;-72
2022/03/24 12:53:09;;;;;;;18.90;11.35;;;;;;;;;;4995325;28;99980;-72
2022/03/24 12:55:42;;;;;;;20.88;11.77;;;;;;;;;;5012666;28;99909;-71
2022/03/24 12:58:13;;;;;;;19.70;10.33;;;;;;;;;;4993743;28;100219;-72
2022/03/24 13:00:48;;;;;;;21.80;11.30;;;;;;;;;;5010500;28;100613;-72
2022/03/24 13:03:16;;;;;;;22.75;11.27;;;;;;;;;;4978383;28;100014;-72
2022/03/24 13:05:44;;;;;;;24.73;10.80;;;;;;;;;;4977060;28;101228;-71
2022/03/24 13:08:13;;;;;;;22.75;11.40;;;;;;;;;;5011990;28;100193;-71
2022/03/24 13:10:52;;;;;;;22.88;11.73;;;;;;;;;;4994020;28;100561;-72
2022/03/24 13:13:20;;;;;;;23.52;12.20;;;;;;;;;;4977286;28;100357;-71
2022/03/24 13:15:47;;;;;;;22.05;12.50;;;;;;;;;;5012696;28;100047;-72
2022/03/24 13:18:14;;;;;;;26.63;11.93;;;;;;;;;;4992290;28;100248;-72
2022/03/24 13:20:51;;;;;;;20.65;11.63;;;;;;;;;;4992522;28;100581;-72
2022/03/24 13:23:19;;;;;;;26.60;12.48;;;;;;;;;;4990557;28;100331;-72
2022/03/24 13:25:53;;;;;;;17.88;11.07;;;;;;;;;;4994044;28;100076;-72
2022/03/24 13:28:24;;;;;;;19.90;10.38;;;;;;;;;;4993215;28;100206;-72
2022/03/24 13:30:52;;;;;;;24.42;11.73;;;;;;;;;;5011020;28;100580;-72
2022/03/24 13:33:20;;;;;;;23.20;13.15;;;;;;;;;;4977801;28;100083;-72
2022/03/24 13:35:48;;;;;;;26.02;15.05;;;;;;;;;;4992815;28;100279;-73
2022/03/24 13:38:22;;;;;;;26.38;15.18;;;;;;;;;;5001811;28;100276;-73
2022/03/24 13:40:56;;;;;;;25.10;15.07;;;;;;;;;;5009835;28;100943;-73
2022/03/24 13:43:23;;;;;;;27.17;14.93;;;;;;;;;;5002121;28;100119;-72
2022/03/24 13:45:51;;;;;;;24.27;13.73;;;;;;;;;;4993558;28;100725;-73
2022/03/24 13:48:19;;;;;;;27.85;14.77;;;;;;;;;;5010842;28;100530;-73
2022/03/24 13:50:48;;;;;;;26.55;15.18;;;;;;;;;;4994844;28;100623;-72
2022/03/24 13:53:17;;;;;;;31.98;16.23;;;;;;;;;;4977640;28;100043;-73
2022/03/24 13:55:45;;;;;;;25.42;14.77;;;;;;;;;;4980110;28;100185;-73
2022/03/24 13:58:17;;;;;;;28.58;15.32;;;;;;;;;;5014070;28;100228;-73
2022/03/24 14:00:48;;;;;;;26.45;14.95;;;;;;;;;;4980028;28;101902;-72
2022/03/24 14:03:22;;;;;;;30.73;15.55;;;;;;;;;;4977669;28;100073;-72
2022/03/24 14:05:52;;;;;;;25.88;15.98;;;;;;;;;;4980929;28;100078;-73
2022/03/24 14:08:36;;;;;;;27.27;15.95;;;;;;;;;;4991950;28;100681;-72
2022/03/24 14:11:07;;;;;;;31.17;16.27;;;;;;;;;;4994228;28;100636;-72
2022/03/24 14:13:45;;;;;;;26.73;14.40;;;;;;;;;;4976681;28;100349;-72
2022/03/24 14:16:28;;;;;;;28.23;15.38;;;;;;;;;;4986306;28;100060;-73
2022/03/24 14:19:15;;;;;;;28.80;16.08;;;;;;;;;;4995000;28;100751;-72